sensor_id;sensor_type;location;lat;lon;timestamp;pressure;altitude;pressure_sealevel;temperature;humidity
71573;BME280;59408;51.032;9.410;2023-06-14T00:00:12;98841.16;;;14.17;57.73
71573;BME280;59408;51.032;9.410;2023-06-14T00:02:39;98836.03;;;14.15;57.46
71573;BME280;59408;51.032;9.410;2023-06-14T00:05:07;98834.03;;;14.12;57.32
71573;BME280;59408;51.032;9.410;2023-06-14T00:07:35;98833.19;;;14.08;57.93
71573;BME280;59408;51.032;9.410;2023-06-14T00:10:02;98837.44;;;14.06;57.54
71573;BME280;59408;51.032;9.410;2023-06-14T00:12:29;98834.66;;;14.02;57.79
71573;BME280;59408;51.032;9.410;2023-06-14T00:14:57;98839.66;;;13.96;58.70
71573;BME280;59408;51.032;9.410;2023-06-14T00:17:23;98843.06;;;13.90;58.78
71573;BME280;59408;51.032;9.410;2023-06-14T00:19:50;98837.94;;;13.88;59.03
71573;BME280;59408;51.032;9.410;2023-06-14T00:22:16;98836.66;;;13.82;58.84
71573;BME280;59408;51.032;9.410;2023-06-14T00:24:43;98837.03;;;13.81;59.11
71573;BME280;59408;51.032;9.410;2023-06-14T00:27:10;98840.13;;;13.79;59.24
71573;BME280;59408;51.032;9.410;2023-06-14T00:29:36;98835.09;;;13.81;58.83
71573;BME280;59408;51.032;9.410;2023-06-14T00:32:05;98838.25;;;13.83;59.13
71573;BME280;59408;51.032;9.410;2023-06-14T00:34:32;98839.09;;;13.87;59.11
71573;BME280;59408;51.032;9.410;2023-06-14T00:36:59;98844.22;;;13.89;59.17
71573;BME280;59408;51.032;9.410;2023-06-14T00:39:25;98841.84;;;13.87;59.12
71573;BME280;59408;51.032;9.410;2023-06-14T00:41:52;98846.88;;;13.85;58.92
71573;BME280;59408;51.032;9.410;2023-06-14T00:44:19;98840.13;;;13.79;59.10
71573;BME280;59408;51.032;9.410;2023-06-14T00:46:45;98840.44;;;13.74;59.73
71573;BME280;59408;51.032;9.410;2023-06-14T00:49:14;98838.34;;;13.68;59.89
71573;BME280;59408;51.032;9.410;2023-06-14T00:51:41;98846.00;;;13.58;60.37
71573;BME280;59408;51.032;9.410;2023-06-14T00:54:08;98843.06;;;13.48;60.52
71573;BME280;59408;51.032;9.410;2023-06-14T00:56:35;98849.13;;;13.38;60.58
71573;BME280;59408;51.032;9.410;2023-06-14T00:59:02;98850.91;;;13.30;61.22
71573;BME280;59408;51.032;9.410;2023-06-14T01:01:30;98857.41;;;13.22;61.90
71573;BME280;59408;51.032;9.410;2023-06-14T01:03:57;98858.84;;;13.16;61.60
71573;BME280;59408;51.032;9.410;2023-06-14T01:06:30;98866.56;;;13.10;62.09
71573;BME280;59408;51.032;9.410;2023-06-14T01:09:07;98867.19;;;13.04;61.69
71573;BME280;59408;51.032;9.410;2023-06-14T01:11:43;98859.19;;;12.95;62.20
71573;BME280;59408;51.032;9.410;2023-06-14T01:14:14;98870.34;;;12.86;62.82
71573;BME280;59408;51.032;9.410;2023-06-14T01:16:42;98864.28;;;12.77;63.38
71573;BME280;59408;51.032;9.410;2023-06-14T01:19:11;98859.34;;;12.67;63.23
71573;BME280;59408;51.032;9.410;2023-06-14T01:21:39;98862.28;;;12.59;64.37
71573;BME280;59408;51.032;9.410;2023-06-14T01:24:08;98867.50;;;12.48;65.47
71573;BME280;59408;51.032;9.410;2023-06-14T01:26:35;98869.28;;;12.40;65.43
71573;BME280;59408;51.032;9.410;2023-06-14T01:29:02;98877.78;;;12.35;65.60
71573;BME280;59408;51.032;9.410;2023-06-14T01:31:29;98877.16;;;12.26;65.68
71573;BME280;59408;51.032;9.410;2023-06-14T01:33:55;98883.25;;;12.20;66.41
71573;BME280;59408;51.032;9.410;2023-06-14T01:36:22;98877.69;;;12.16;66.25
71573;BME280;59408;51.032;9.410;2023-06-14T01:38:53;98877.91;;;12.11;65.03
71573;BME280;59408;51.032;9.410;2023-06-14T01:41:21;98877.03;;;12.07;66.01
71573;BME280;59408;51.032;9.410;2023-06-14T01:43:49;98882.06;;;12.05;65.77
71573;BME280;59408;51.032;9.410;2023-06-14T01:46:17;98878.88;;;12.03;66.07
71573;BME280;59408;51.032;9.410;2023-06-14T01:48:44;98877.56;;;11.97;66.83
71573;BME280;59408;51.032;9.410;2023-06-14T01:51:10;98868.41;;;11.89;65.87
71573;BME280;59408;51.032;9.410;2023-06-14T01:53:37;98872.97;;;11.85;67.06
71573;BME280;59408;51.032;9.410;2023-06-14T01:56:04;98882.13;;;11.77;66.90
71573;BME280;59408;51.032;9.410;2023-06-14T01:58:32;98873.63;;;11.66;67.88
71573;BME280;59408;51.032;9.410;2023-06-14T02:00:58;98875.31;;;11.55;68.78
71573;BME280;59408;51.032;9.410;2023-06-14T02:03:25;98875.00;;;11.45;70.31
71573;BME280;59408;51.032;9.410;2023-06-14T02:05:52;98871.63;;;11.35;70.76
71573;BME280;59408;51.032;9.410;2023-06-14T02:08:18;98874.06;;;11.25;70.41
71573;BME280;59408;51.032;9.410;2023-06-14T02:10:45;98877.81;;;11.20;70.51
71573;BME280;59408;51.032;9.410;2023-06-14T02:13:12;98872.50;;;11.12;72.67
71573;BME280;59408;51.032;9.410;2023-06-14T02:15:39;98873.44;;;11.04;71.60
71573;BME280;59408;51.032;9.410;2023-06-14T02:18:06;98882.22;;;10.97;72.85
71573;BME280;59408;51.032;9.410;2023-06-14T02:20:33;98881.69;;;10.91;72.17
71573;BME280;59408;51.032;9.410;2023-06-14T02:22:59;98885.75;;;10.85;72.92
71573;BME280;59408;51.032;9.410;2023-06-14T02:25:26;98881.25;;;10.77;73.74
71573;BME280;59408;51.032;9.410;2023-06-14T02:27:53;98891.56;;;10.72;74.00
71573;BME280;59408;51.032;9.410;2023-06-14T02:30:19;98883.16;;;10.65;74.16
71573;BME280;59408;51.032;9.410;2023-06-14T02:32:47;98882.84;;;10.54;74.45
71573;BME280;59408;51.032;9.410;2023-06-14T02:35:14;98876.00;;;10.48;75.50
71573;BME280;59408;51.032;9.410;2023-06-14T02:37:40;98876.91;;;10.40;74.96
71573;BME280;59408;51.032;9.410;2023-06-14T02:40:08;98882.63;;;10.35;74.14
71573;BME280;59408;51.032;9.410;2023-06-14T02:42:34;98880.81;;;10.27;76.52
71573;BME280;59408;51.032;9.410;2023-06-14T02:45:01;98884.06;;;10.20;77.10
71573;BME280;59408;51.032;9.410;2023-06-14T02:47:27;98872.47;;;10.11;77.57
71573;BME280;59408;51.032;9.410;2023-06-14T02:49:55;98872.94;;;10.01;77.41
71573;BME280;59408;51.032;9.410;2023-06-14T02:52:22;98875.78;;;9.92;78.36
71573;BME280;59408;51.032;9.410;2023-06-14T02:54:48;98869.72;;;9.86;78.59
71573;BME280;59408;51.032;9.410;2023-06-14T02:57:15;98876.22;;;9.82;78.16
71573;BME280;59408;51.032;9.410;2023-06-14T02:59:42;98872.41;;;9.74;79.71
71573;BME280;59408;51.032;9.410;2023-06-14T03:02:08;98872.41;;;9.74;79.37
71573;BME280;59408;51.032;9.410;2023-06-14T03:04:35;98870.06;;;9.85;78.74
71573;BME280;59408;51.032;9.410;2023-06-14T03:07:04;98878.59;;;9.96;78.72
71573;BME280;59408;51.032;9.410;2023-06-14T03:09:30;98874.06;;;10.12;77.82
71573;BME280;59408;51.032;9.410;2023-06-14T03:11:57;98876.03;;;10.23;77.06
71573;BME280;59408;51.032;9.410;2023-06-14T03:14:23;98881.81;;;10.34;76.82
71573;BME280;59408;51.032;9.410;2023-06-14T03:16:50;98884.09;;;10.44;76.51
71573;BME280;59408;51.032;9.410;2023-06-14T03:19:17;98893.75;;;10.54;75.74
71573;BME280;59408;51.032;9.410;2023-06-14T03:21:43;98897.38;;;10.58;75.72
71573;BME280;59408;51.032;9.410;2023-06-14T03:24:11;98897.94;;;10.63;74.58
71573;BME280;59408;51.032;9.410;2023-06-14T03:26:38;98903.84;;;10.53;76.04
71573;BME280;59408;51.032;9.410;2023-06-14T03:29:04;98905.00;;;10.28;77.20
71573;BME280;59408;51.032;9.410;2023-06-14T03:31:31;98907.13;;;10.10;78.41
71573;BME280;59408;51.032;9.410;2023-06-14T03:33:58;98907.09;;;9.98;78.68
71573;BME280;59408;51.032;9.410;2023-06-14T03:36:24;98906.75;;;9.87;78.65
71573;BME280;59408;51.032;9.410;2023-06-14T03:38:51;98910.03;;;9.81;78.30
71573;BME280;59408;51.032;9.410;2023-06-14T03:41:19;98912.16;;;9.75;79.82
71573;BME280;59408;51.032;9.410;2023-06-14T03:43:46;98926.19;;;9.65;79.64
71573;BME280;59408;51.032;9.410;2023-06-14T03:46:12;98929.00;;;9.57;81.38
71573;BME280;59408;51.032;9.410;2023-06-14T03:48:39;98932.41;;;9.54;80.71
71573;BME280;59408;51.032;9.410;2023-06-14T03:51:05;98929.88;;;9.48;81.56
71573;BME280;59408;51.032;9.410;2023-06-14T03:53:32;98939.63;;;9.49;81.24
71573;BME280;59408;51.032;9.410;2023-06-14T03:55:59;98938.72;;;9.45;82.56
71573;BME280;59408;51.032;9.410;2023-06-14T03:58:26;98940.66;;;9.45;80.95
71573;BME280;59408;51.032;9.410;2023-06-14T04:00:53;98948.81;;;9.45;82.51
71573;BME280;59408;51.032;9.410;2023-06-14T04:03:19;98949.47;;;9.42;82.24
71573;BME280;59408;51.032;9.410;2023-06-14T04:05:46;98947.88;;;9.41;83.20
71573;BME280;59408;51.032;9.410;2023-06-14T04:08:13;98956.03;;;9.41;83.30
71573;BME280;59408;51.032;9.410;2023-06-14T04:10:39;98958.56;;;9.46;83.89
71573;BME280;59408;51.032;9.410;2023-06-14T04:13:06;98963.22;;;9.45;83.85
71573;BME280;59408;51.032;9.410;2023-06-14T04:15:34;98975.03;;;9.49;83.38
71573;BME280;59408;51.032;9.410;2023-06-14T04:18:01;98978.22;;;9.52;83.56
71573;BME280;59408;51.032;9.410;2023-06-14T04:20:27;98978.81;;;9.57;84.87
71573;BME280;59408;51.032;9.410;2023-06-14T04:22:56;98984.72;;;9.59;85.45
71573;BME280;59408;51.032;9.410;2023-06-14T04:25:23;98979.09;;;9.64;86.41
71573;BME280;59408;51.032;9.410;2023-06-14T04:27:50;98975.34;;;9.69;82.61
71573;BME280;59408;51.032;9.410;2023-06-14T04:30:16;98980.25;;;9.75;85.05
71573;BME280;59408;51.032;9.410;2023-06-14T04:32:44;98982.69;;;9.89;84.51
71573;BME280;59408;51.032;9.410;2023-06-14T04:35:13;98980.44;;;10.03;84.43
71573;BME280;59408;51.032;9.410;2023-06-14T04:37:40;98985.28;;;10.18;82.97
71573;BME280;59408;51.032;9.410;2023-06-14T04:40:08;98991.22;;;10.33;81.97
71573;BME280;59408;51.032;9.410;2023-06-14T04:42:38;98994.06;;;10.48;81.64
71573;BME280;59408;51.032;9.410;2023-06-14T04:45:05;98994.56;;;10.62;80.04
71573;BME280;59408;51.032;9.410;2023-06-14T04:47:32;98990.03;;;10.79;79.87
71573;BME280;59408;51.032;9.410;2023-06-14T04:50:00;98989.56;;;10.89;79.32
71573;BME280;59408;51.032;9.410;2023-06-14T04:52:27;98984.13;;;11.01;78.82
71573;BME280;59408;51.032;9.410;2023-06-14T04:54:53;98986.81;;;11.13;78.87
71573;BME280;59408;51.032;9.410;2023-06-14T04:57:20;98989.41;;;11.22;77.43
71573;BME280;59408;51.032;9.410;2023-06-14T04:59:47;98986.34;;;11.35;76.97
71573;BME280;59408;51.032;9.410;2023-06-14T05:02:13;98987.00;;;11.45;76.76
71573;BME280;59408;51.032;9.410;2023-06-14T05:04:40;98989.34;;;11.58;75.31
71573;BME280;59408;51.032;9.410;2023-06-14T05:07:08;98989.31;;;11.70;75.37
71573;BME280;59408;51.032;9.410;2023-06-14T05:09:36;98996.22;;;11.80;74.51
71573;BME280;59408;51.032;9.410;2023-06-14T05:12:03;98991.72;;;11.88;74.35
71573;BME280;59408;51.032;9.410;2023-06-14T05:14:30;98998.91;;;11.92;74.83
71573;BME280;59408;51.032;9.410;2023-06-14T05:16:56;98993.97;;;11.98;75.08
71573;BME280;59408;51.032;9.410;2023-06-14T05:19:23;98984.81;;;12.06;74.17
71573;BME280;59408;51.032;9.410;2023-06-14T05:21:49;98982.75;;;12.15;74.16
71573;BME280;59408;51.032;9.410;2023-06-14T05:24:17;98976.41;;;12.27;72.00
71573;BME280;59408;51.032;9.410;2023-06-14T05:26:44;98989.19;;;12.38;72.61
71573;BME280;59408;51.032;9.410;2023-06-14T05:29:11;98982.06;;;12.49;71.81
71573;BME280;59408;51.032;9.410;2023-06-14T05:31:37;98983.84;;;12.58;71.26
71573;BME280;59408;51.032;9.410;2023-06-14T05:34:04;98996.63;;;12.69;70.93
71573;BME280;59408;51.032;9.410;2023-06-14T05:36:31;98990.19;;;12.77;70.95
71573;BME280;59408;51.032;9.410;2023-06-14T05:38:57;98994.69;;;12.85;71.08
71573;BME280;59408;51.032;9.410;2023-06-14T05:41:26;99008.63;;;12.96;70.80
71573;BME280;59408;51.032;9.410;2023-06-14T05:43:53;99009.78;;;13.11;71.30
71573;BME280;59408;51.032;9.410;2023-06-14T05:46:20;99012.38;;;13.23;70.85
71573;BME280;59408;51.032;9.410;2023-06-14T05:48:47;99001.22;;;13.32;69.88
71573;BME280;59408;51.032;9.410;2023-06-14T05:51:14;99001.41;;;13.39;69.11
71573;BME280;59408;51.032;9.410;2023-06-14T05:53:40;99005.63;;;13.52;68.67
71573;BME280;59408;51.032;9.410;2023-06-14T05:56:07;99010.88;;;13.60;68.58
71573;BME280;59408;51.032;9.410;2023-06-14T05:58:35;99008.81;;;13.73;67.98
71573;BME280;59408;51.032;9.410;2023-06-14T06:01:01;99011.13;;;13.90;67.26
71573;BME280;59408;51.032;9.410;2023-06-14T06:03:28;99017.19;;;14.00;66.51
71573;BME280;59408;51.032;9.410;2023-06-14T06:05:55;99018.59;;;14.13;67.24
71573;BME280;59408;51.032;9.410;2023-06-14T06:08:21;99016.84;;;14.24;66.53
71573;BME280;59408;51.032;9.410;2023-06-14T06:10:48;99024.97;;;14.40;64.51
71573;BME280;59408;51.032;9.410;2023-06-14T06:13:15;99020.00;;;14.45;64.23
71573;BME280;59408;51.032;9.410;2023-06-14T06:15:43;99020.00;;;14.45;64.95
71573;BME280;59408;51.032;9.410;2023-06-14T06:18:10;99035.59;;;14.60;63.91
71573;BME280;59408;51.032;9.410;2023-06-14T06:20:37;99026.75;;;14.70;64.52
71573;BME280;59408;51.032;9.410;2023-06-14T06:23:03;99028.94;;;14.84;63.69
71573;BME280;59408;51.032;9.410;2023-06-14T06:25:30;99026.78;;;14.97;64.54
71573;BME280;59408;51.032;9.410;2023-06-14T06:27:56;99030.88;;;15.06;63.39
71573;BME280;59408;51.032;9.410;2023-06-14T06:30:23;99037.25;;;15.14;64.00
71573;BME280;59408;51.032;9.410;2023-06-14T06:32:52;99027.34;;;15.32;63.05
71573;BME280;59408;51.032;9.410;2023-06-14T06:35:18;99035.75;;;15.43;63.31
71573;BME280;59408;51.032;9.410;2023-06-14T06:37:45;99034.31;;;15.53;62.35
71573;BME280;59408;51.032;9.410;2023-06-14T06:40:12;99037.50;;;15.58;62.11
71573;BME280;59408;51.032;9.410;2023-06-14T06:42:39;99041.59;;;15.68;62.15
71573;BME280;59408;51.032;9.410;2023-06-14T06:45:06;99044.34;;;15.68;61.67
71573;BME280;59408;51.032;9.410;2023-06-14T06:47:32;99045.34;;;15.82;60.49
71573;BME280;59408;51.032;9.410;2023-06-14T06:50:00;99039.28;;;16.00;60.88
71573;BME280;59408;51.032;9.410;2023-06-14T06:52:27;99048.56;;;16.21;61.01
71573;BME280;59408;51.032;9.410;2023-06-14T06:54:53;99049.94;;;16.38;60.62
71573;BME280;59408;51.032;9.410;2023-06-14T06:57:20;99058.75;;;16.54;59.28
71573;BME280;59408;51.032;9.410;2023-06-14T06:59:47;99052.88;;;16.56;59.35
71573;BME280;59408;51.032;9.410;2023-06-14T07:02:13;99065.28;;;16.76;59.00
71573;BME280;59408;51.032;9.410;2023-06-14T07:04:40;99063.44;;;16.87;58.71
71573;BME280;59408;51.032;9.410;2023-06-14T07:07:08;99066.69;;;17.00;58.96
71573;BME280;59408;51.032;9.410;2023-06-14T07:09:35;99063.28;;;17.17;57.19
71573;BME280;59408;51.032;9.410;2023-06-14T07:12:02;99069.31;;;17.33;57.79
71573;BME280;59408;51.032;9.410;2023-06-14T07:14:28;99056.03;;;17.50;56.41
71573;BME280;59408;51.032;9.410;2023-06-14T07:16:55;99057.75;;;17.68;55.14
71573;BME280;59408;51.032;9.410;2023-06-14T07:19:22;99062.13;;;17.73;56.24
71573;BME280;59408;51.032;9.410;2023-06-14T07:21:48;99062.53;;;17.79;54.82
71573;BME280;59408;51.032;9.410;2023-06-14T07:24:16;99064.91;;;17.80;55.54
71573;BME280;59408;51.032;9.410;2023-06-14T07:26:43;99073.66;;;17.93;54.66
71573;BME280;59408;51.032;9.410;2023-06-14T07:29:09;99074.66;;;17.60;55.54
71573;BME280;59408;51.032;9.410;2023-06-14T07:31:36;99071.91;;;17.67;55.10
71573;BME280;59408;51.032;9.410;2023-06-14T07:34:03;99074.53;;;17.46;55.45
71573;BME280;59408;51.032;9.410;2023-06-14T07:36:29;99076.19;;;17.57;56.04
71573;BME280;59408;51.032;9.410;2023-06-14T07:38:56;99072.94;;;18.10;55.71
71573;BME280;59408;51.032;9.410;2023-06-14T07:41:24;99063.19;;;18.44;54.63
71573;BME280;59408;51.032;9.410;2023-06-14T07:43:50;99067.22;;;18.72;52.59
71573;BME280;59408;51.032;9.410;2023-06-14T07:46:17;99065.63;;;18.57;52.95
71573;BME280;59408;51.032;9.410;2023-06-14T07:48:44;99070.00;;;18.79;53.54
71573;BME280;59408;51.032;9.410;2023-06-14T07:51:11;99073.19;;;19.13;51.76
71573;BME280;59408;51.032;9.410;2023-06-14T07:53:37;99075.97;;;19.27;51.17
71573;BME280;59408;51.032;9.410;2023-06-14T07:56:04;99064.91;;;19.41;50.94
71573;BME280;59408;51.032;9.410;2023-06-14T07:58:32;99072.00;;;19.49;50.25
71573;BME280;59408;51.032;9.410;2023-06-14T08:00:59;99059.75;;;19.54;50.37
71573;BME280;59408;51.032;9.410;2023-06-14T08:03:25;99067.22;;;19.68;49.67
71573;BME280;59408;51.032;9.410;2023-06-14T08:05:52;99060.19;;;19.38;51.25
71573;BME280;59408;51.032;9.410;2023-06-14T08:08:19;99057.78;;;19.26;52.16
71573;BME280;59408;51.032;9.410;2023-06-14T08:10:45;99066.09;;;19.47;50.52
71573;BME280;59408;51.032;9.410;2023-06-14T08:13:12;99069.53;;;19.87;51.01
71573;BME280;59408;51.032;9.410;2023-06-14T08:15:40;99071.41;;;20.15;49.53
71573;BME280;59408;51.032;9.410;2023-06-14T08:18:06;99078.00;;;20.49;50.59
71573;BME280;59408;51.032;9.410;2023-06-14T08:20:33;99082.00;;;20.41;49.40
71573;BME280;59408;51.032;9.410;2023-06-14T08:22:59;99072.63;;;20.21;47.83
71573;BME280;59408;51.032;9.410;2023-06-14T08:25:26;99083.78;;;19.92;49.62
71573;BME280;59408;51.032;9.410;2023-06-14T08:27:53;99080.19;;;19.96;48.82
71573;BME280;59408;51.032;9.410;2023-06-14T08:30:19;99071.41;;;20.29;48.36
71573;BME280;59408;51.032;9.410;2023-06-14T08:32:47;99075.25;;;20.49;47.72
71573;BME280;59408;51.032;9.410;2023-06-14T08:35:27;99071.81;;;20.93;47.72
71573;BME280;59408;51.032;9.410;2023-06-14T08:37:54;99076.75;;;21.23;46.47
71573;BME280;59408;51.032;9.410;2023-06-14T08:40:22;99075.94;;;21.26;47.34
71573;BME280;59408;51.032;9.410;2023-06-14T08:42:51;99072.41;;;21.63;46.15
71573;BME280;59408;51.032;9.410;2023-06-14T08:45:19;99079.31;;;21.89;46.59
71573;BME280;59408;51.032;9.410;2023-06-14T08:47:47;99073.75;;;21.89;44.59
71573;BME280;59408;51.032;9.410;2023-06-14T08:50:14;99078.97;;;22.18;44.56
71573;BME280;59408;51.032;9.410;2023-06-14T08:52:55;99088.94;;;21.77;44.96
71573;BME280;59408;51.032;9.410;2023-06-14T08:55:22;99089.72;;;21.37;45.55
71573;BME280;59408;51.032;9.410;2023-06-14T08:57:49;99083.16;;;21.13;46.56
71573;BME280;59408;51.032;9.410;2023-06-14T09:00:16;99087.34;;;21.35;47.84
71573;BME280;59408;51.032;9.410;2023-06-14T09:02:44;99102.19;;;21.59;46.96
71573;BME280;59408;51.032;9.410;2023-06-14T09:05:12;99092.81;;;21.43;46.75
71573;BME280;59408;51.032;9.410;2023-06-14T09:07:39;99096.88;;;22.13;45.72
71573;BME280;59408;51.032;9.410;2023-06-14T09:10:10;99090.31;;;22.64;42.75
71573;BME280;59408;51.032;9.410;2023-06-14T09:12:37;99090.56;;;22.12;44.43
71573;BME280;59408;51.032;9.410;2023-06-14T09:15:05;99094.94;;;21.69;45.23
71573;BME280;59408;51.032;9.410;2023-06-14T09:17:33;99097.53;;;21.90;44.86
71573;BME280;59408;51.032;9.410;2023-06-14T09:20:00;99099.84;;;21.99;44.68
71573;BME280;59408;51.032;9.410;2023-06-14T09:22:29;99102.34;;;21.86;45.57
71573;BME280;59408;51.032;9.410;2023-06-14T09:24:56;99107.44;;;22.29;43.28
71573;BME280;59408;51.032;9.410;2023-06-14T09:27:23;99112.34;;;22.78;44.40
71573;BME280;59408;51.032;9.410;2023-06-14T09:29:51;99098.72;;;22.27;43.48
71573;BME280;59408;51.032;9.410;2023-06-14T09:32:18;99103.28;;;21.69;45.35
71573;BME280;59408;51.032;9.410;2023-06-14T09:34:45;99109.88;;;21.45;45.71
71573;BME280;59408;51.032;9.410;2023-06-14T09:37:12;99103.50;;;22.23;44.82
71573;BME280;59408;51.032;9.410;2023-06-14T09:39:50;99109.19;;;22.46;42.80
71573;BME280;59408;51.032;9.410;2023-06-14T09:42:17;99112.22;;;22.85;43.75
71573;BME280;59408;51.032;9.410;2023-06-14T09:44:44;99105.44;;;23.40;40.95
71573;BME280;59408;51.032;9.410;2023-06-14T09:47:12;99103.47;;;22.87;41.75
71573;BME280;59408;51.032;9.410;2023-06-14T09:49:39;99109.81;;;22.61;43.15
71573;BME280;59408;51.032;9.410;2023-06-14T09:52:07;99113.41;;;22.88;42.87
71573;BME280;59408;51.032;9.410;2023-06-14T09:54:40;99106.25;;;21.92;43.98
71573;BME280;59408;51.032;9.410;2023-06-14T09:57:08;99115.28;;;22.34;43.14
71573;BME280;59408;51.032;9.410;2023-06-14T09:59:40;99104.47;;;21.75;44.03
71573;BME280;59408;51.032;9.410;2023-06-14T10:02:11;99103.66;;;22.12;45.55
71573;BME280;59408;51.032;9.410;2023-06-14T10:04:41;99108.31;;;22.83;43.52
71573;BME280;59408;51.032;9.410;2023-06-14T10:07:11;99094.72;;;23.62;43.34
71573;BME280;59408;51.032;9.410;2023-06-14T10:09:38;99097.81;;;24.30;39.66
71573;BME280;59408;51.032;9.410;2023-06-14T10:12:05;99101.28;;;24.54;38.89
71573;BME280;59408;51.032;9.410;2023-06-14T10:14:34;99097.50;;;24.45;39.87
71573;BME280;59408;51.032;9.410;2023-06-14T10:17:04;99098.81;;;24.60;40.09
71573;BME280;59408;51.032;9.410;2023-06-14T10:19:37;99095.25;;;25.12;39.72
71573;BME280;59408;51.032;9.410;2023-06-14T10:22:10;99088.00;;;25.47;39.50
71573;BME280;59408;51.032;9.410;2023-06-14T10:24:41;99097.50;;;25.65;36.43
71573;BME280;59408;51.032;9.410;2023-06-14T10:27:08;99092.88;;;25.59;36.50
71573;BME280;59408;51.032;9.410;2023-06-14T10:30:04;99073.47;;;24.87;37.37
71573;BME280;59408;51.032;9.410;2023-06-14T10:32:32;99087.66;;;25.12;38.80
71573;BME280;59408;51.032;9.410;2023-06-14T10:35:00;99086.50;;;25.26;38.28
71573;BME280;59408;51.032;9.410;2023-06-14T10:37:27;99089.50;;;24.66;38.89
71573;BME280;59408;51.032;9.410;2023-06-14T10:39:54;99088.47;;;24.21;39.64
71573;BME280;59408;51.032;9.410;2023-06-14T10:42:20;99081.38;;;23.96;39.78
71573;BME280;59408;51.032;9.410;2023-06-14T10:44:50;99088.38;;;24.24;41.34
71573;BME280;59408;51.032;9.410;2023-06-14T10:47:23;99074.50;;;25.29;37.41
71573;BME280;59408;51.032;9.410;2023-06-14T10:49:51;99075.78;;;26.02;36.41
71573;BME280;59408;51.032;9.410;2023-06-14T10:52:22;99078.97;;;26.83;36.07
71573;BME280;59408;51.032;9.410;2023-06-14T10:55:03;99070.22;;;26.81;36.23
71573;BME280;59408;51.032;9.410;2023-06-14T10:57:30;99080.31;;;25.96;35.70
71573;BME280;59408;51.032;9.410;2023-06-14T11:00:10;99075.81;;;25.86;37.60
71573;BME280;59408;51.032;9.410;2023-06-14T11:02:51;99070.47;;;26.20;35.01
71573;BME280;59408;51.032;9.410;2023-06-14T11:05:24;99084.88;;;26.60;32.84
71573;BME280;59408;51.032;9.410;2023-06-14T11:08:00;99083.41;;;26.68;32.90
71573;BME280;59408;51.032;9.410;2023-06-14T11:10:36;99079.88;;;27.18;35.51
71573;BME280;59408;51.032;9.410;2023-06-14T11:13:03;99085.84;;;27.42;34.64
71573;BME280;59408;51.032;9.410;2023-06-14T11:15:32;99079.84;;;27.31;33.24
71573;BME280;59408;51.032;9.410;2023-06-14T11:18:00;99095.50;;;27.41;32.15
71573;BME280;59408;51.032;9.410;2023-06-14T11:20:30;99078.16;;;27.68;31.92
71573;BME280;59408;51.032;9.410;2023-06-14T11:22:57;99074.25;;;28.00;31.73
71573;BME280;59408;51.032;9.410;2023-06-14T11:25:24;99071.00;;;27.20;33.86
71573;BME280;59408;51.032;9.410;2023-06-14T11:27:51;99062.38;;;27.27;34.40
71573;BME280;59408;51.032;9.410;2023-06-14T11:30:18;99064.84;;;26.62;35.87
71573;BME280;59408;51.032;9.410;2023-06-14T11:32:47;99061.22;;;25.78;35.23
71573;BME280;59408;51.032;9.410;2023-06-14T11:35:15;99071.16;;;26.37;36.01
71573;BME280;59408;51.032;9.410;2023-06-14T11:37:42;99073.56;;;27.27;34.51
71573;BME280;59408;51.032;9.410;2023-06-14T11:40:09;99065.00;;;27.90;34.18
71573;BME280;59408;51.032;9.410;2023-06-14T11:42:36;99060.44;;;27.71;32.69
71573;BME280;59408;51.032;9.410;2023-06-14T11:45:05;99070.88;;;27.71;33.07
71573;BME280;59408;51.032;9.410;2023-06-14T11:47:36;99059.38;;;27.56;33.47
71573;BME280;59408;51.032;9.410;2023-06-14T11:50:06;99063.50;;;26.91;34.11
71573;BME280;59408;51.032;9.410;2023-06-14T11:52:33;99057.00;;;27.07;34.18
71573;BME280;59408;51.032;9.410;2023-06-14T11:55:01;99053.81;;;27.43;33.82
71573;BME280;59408;51.032;9.410;2023-06-14T11:57:28;99064.47;;;27.36;34.45
71573;BME280;59408;51.032;9.410;2023-06-14T11:59:55;99057.03;;;28.11;35.01
71573;BME280;59408;51.032;9.410;2023-06-14T12:02:22;99053.25;;;28.26;33.16
71573;BME280;59408;51.032;9.410;2023-06-14T12:04:50;99053.09;;;28.83;30.80
71573;BME280;59408;51.032;9.410;2023-06-14T12:07:19;99054.97;;;28.86;30.88
71573;BME280;59408;51.032;9.410;2023-06-14T12:10:04;99055.13;;;28.51;31.33
71573;BME280;59408;51.032;9.410;2023-06-14T12:12:31;99069.53;;;27.75;32.85
71573;BME280;59408;51.032;9.410;2023-06-14T12:14:57;99064.06;;;26.61;32.98
71573;BME280;59408;51.032;9.410;2023-06-14T12:17:24;99066.34;;;25.67;34.57
71573;BME280;59408;51.032;9.410;2023-06-14T12:19:51;99068.44;;;25.14;35.32
71573;BME280;59408;51.032;9.410;2023-06-14T12:22:19;99062.28;;;26.26;34.22
71573;BME280;59408;51.032;9.410;2023-06-14T12:24:46;99067.16;;;27.14;33.89
71573;BME280;59408;51.032;9.410;2023-06-14T12:27:12;99058.84;;;28.04;31.87
71573;BME280;59408;51.032;9.410;2023-06-14T12:29:39;99059.94;;;29.12;31.95
71573;BME280;59408;51.032;9.410;2023-06-14T12:32:07;99055.00;;;29.99;29.82
71573;BME280;59408;51.032;9.410;2023-06-14T12:34:34;99057.03;;;30.16;30.23
71573;BME280;59408;51.032;9.410;2023-06-14T12:37:01;99065.16;;;30.23;28.75
71573;BME280;59408;51.032;9.410;2023-06-14T12:39:29;99064.13;;;29.17;30.65
71573;BME280;59408;51.032;9.410;2023-06-14T12:41:56;99051.50;;;28.82;30.21
71573;BME280;59408;51.032;9.410;2023-06-14T12:44:23;99054.38;;;29.40;31.04
71573;BME280;59408;51.032;9.410;2023-06-14T12:46:50;99056.84;;;29.29;29.21
71573;BME280;59408;51.032;9.410;2023-06-14T12:49:17;99060.31;;;29.97;29.17
71573;BME280;59408;51.032;9.410;2023-06-14T12:51:43;99056.59;;;29.72;29.70
71573;BME280;59408;51.032;9.410;2023-06-14T12:54:10;99047.38;;;30.69;27.99
71573;BME280;59408;51.032;9.410;2023-06-14T12:56:38;99060.38;;;30.75;27.70
71573;BME280;59408;51.032;9.410;2023-06-14T12:59:05;99055.94;;;30.83;27.17
71573;BME280;59408;51.032;9.410;2023-06-14T13:01:31;99052.06;;;29.93;28.89
71573;BME280;59408;51.032;9.410;2023-06-14T13:03:58;99051.69;;;29.45;30.48